パラオ の空港の天気 - METARとTAF

パラオ国際空港 ( PTRO / ROR ) - パラオ アイライ州
飛行場実況気象(Metar)
観測時間07/16 14:52 PWT (07/16 05:52 UTC)
風向・風速西南西 5m/s
視程10km以上
天気現象
全天の4割程度の雲 雲底高度 490m
全天の8割程度の雲 雲底高度 3660m
全天を覆う雲 雲底高度 9140m
気温27℃
湿度74%
気圧1006hPa
METARPTRO 160552Z 25009KT 14SM SCT016 BKN120 OVC300 27/22 A2972
過去の天気等 Google飛行場航空写真 Wunderground天気予報

過去48時間のMETAR

飛行場予報(TAF)
発表時間: 7/16 14:55 PWT (7/16 05:55 UTC)
予報対象時間: 16日15時 PWT ~ 17日15時 PWT
風向・風速西 6m/s 瞬間風速 9m/s
視程10km以上
天気現象周辺でしゅう雨
少しの雲 雲底高度 300m
全天の4割程度の雲 雲底高度 490m
全天の8割程度の雲 雲底高度 3660m
PTRO 160555Z 1606/1706 26011G18KT P6SM VCSH FEW010 SCT016 BKN120